Time;durP1;ratioP1;P1;durP2;ratioP2;P2;SDS_P1;SDS_P2;PMS_P1;PMS_P2;Temp;Humidity;BMP_temperature;BMP_pressure;BME280_temperature;BME280_humidity;BME280_pressure;Samples;Min_cycle;Max_cycle;Signal;HPM_P1;HPM_P2
2021/12/05 00:18:20;;;;;;;9.95;3.45;;;;;;;3.10;96.47;99716.75;5034149;28;20040;-66
2021/12/05 00:23:47;;;;;;;7.57;3.35;;;;;;;3.06;96.38;99716.28;5032446;28;20037;-67
2021/12/05 00:26:17;;;;;;;6.97;2.70;;;;;;;3.08;96.42;99706.41;5033769;28;20049;-67
2021/12/05 00:29:05;;;;;;;8.48;3.17;;;;;;;3.11;95.92;99718.38;5033780;28;20032;-67
2021/12/05 00:50:05;;;;;;;13.15;3.20;;;;;;;3.15;96.32;99720.50;5033011;28;20033;-67
2021/12/05 00:55:30;;;;;;;14.75;4.72;;;;;;;3.06;95.91;99722.34;5033237;28;20128;-67
2021/12/05 01:01:38;;;;;;;13.55;3.80;;;;;;;3.01;95.97;99723.88;5033476;28;20104;-67
2021/12/05 01:03:56;;;;;;;14.05;3.70;;;;;;;2.95;95.96;99728.03;5032501;28;20060;-67
2021/12/05 01:18:02;;;;;;;14.15;4.53;;;;;;;2.74;95.80;99723.41;5187764;23;20304;-69
2021/12/05 01:20:37;;;;;;;13.43;3.28;;;;;;;2.69;95.73;99731.00;4935637;29;20046;-68
2021/12/05 01:23:10;;;;;;;17.90;4.88;;;;;;;2.64;95.69;99733.31;4935759;29;20049;-65
2021/12/05 01:28:54;;;;;;;9.52;3.45;;;;;;;2.53;96.03;99734.53;4927066;29;20031;-65
2021/12/05 01:34:32;;;;;;;12.40;3.88;;;;;;;2.44;96.38;99729.47;4935085;29;20039;-65
2021/12/05 02:30:45;;;;;;;16.10;4.93;;;;;;;1.87;98.42;99712.94;4918320;29;20501;-67
2021/12/05 02:35:56;;;;;;;12.77;3.15;;;;;;;1.86;98.31;99713.06;4938512;29;20043;-68
2021/12/05 02:43:35;;;;;;;12.63;3.92;;;;;;;1.88;98.74;99706.66;4938648;29;20479;-66
2021/12/05 02:46:04;;;;;;;13.07;3.83;;;;;;;1.91;98.78;99701.09;4938284;29;20032;-65
2021/12/05 02:48:32;;;;;;;10.85;3.90;;;;;;;1.92;98.48;99701.91;4938524;29;20042;-66
2021/12/05 02:51:00;;;;;;;13.40;2.67;;;;;;;1.91;98.58;99700.25;4938307;29;20023;-65
2021/12/05 02:53:43;;;;;;;10.30;3.50;;;;;;;1.90;98.99;99696.81;4938144;29;20031;-65
2021/12/05 02:56:10;;;;;;;11.85;3.35;;;;;;;1.89;98.56;99689.91;4938071;29;20035;-65
2021/12/05 03:01:38;;;;;;;19.92;4.20;;;;;;;1.88;98.73;99698.78;4929284;29;20035;-66
2021/12/05 03:04:05;;;;;;;9.00;2.33;;;;;;;1.84;99.14;99689.59;4938078;29;20027;-65
2021/12/05 03:06:32;;;;;;;10.48;4.38;;;;;;;1.86;99.10;99692.06;4937957;29;20032;-66
2021/12/05 03:09:13;;;;;;;8.18;2.78;;;;;;;1.85;98.87;99704.38;4937954;29;20038;-66
2021/12/05 03:11:39;;;;;;;15.20;3.63;;;;;;;1.86;99.22;99707.81;4937899;29;20027;-66
2021/12/05 03:14:05;;;;;;;5.13;2.40;;;;;;;1.84;98.75;99704.56;4937879;29;20035;-66
2021/12/05 03:16:33;;;;;;;8.43;2.42;;;;;;;1.85;99.24;99714.91;4937642;29;20095;-66
2021/12/05 03:18:59;;;;;;;12.80;3.40;;;;;;;1.89;99.43;99712.75;4937797;29;20062;-66
2021/12/05 03:21:25;;;;;;;9.57;3.85;;;;;;;1.97;99.61;99713.56;4937709;29;20056;-65
2021/12/05 03:23:52;;;;;;;5.72;2.08;;;;;;;2.06;99.36;99713.53;4937697;29;20036;-65
2021/12/05 03:26:26;;;;;;;14.98;3.15;;;;;;;2.12;99.51;99712.84;4937664;29;20055;-65
2021/12/05 03:28:55;;;;;;;4.80;2.35;;;;;;;2.18;99.30;99713.00;4937503;29;20039;-66
2021/12/05 03:31:20;;;;;;;8.05;3.10;;;;;;;2.22;98.94;99708.19;4937414;29;20024;-66
2021/12/05 03:33:46;;;;;;;13.18;2.42;;;;;;;2.28;98.92;99717.22;4937446;29;20443;-66
2021/12/05 03:36:11;;;;;;;6.55;2.30;;;;;;;2.32;98.86;99721.16;4936994;29;20056;-66
2021/12/05 03:38:38;;;;;;;8.45;2.97;;;;;;;2.34;99.02;99720.00;4936974;29;20110;-65
2021/12/05 03:41:04;;;;;;;11.68;4.07;;;;;;;2.36;98.90;99714.56;4936862;29;20427;-66
2021/12/05 03:43:30;;;;;;;10.98;4.30;;;;;;;2.38;99.04;99709.94;4937174;29;20078;-66
2021/12/05 03:45:57;;;;;;;9.50;3.03;;;;;;;2.38;98.96;99704.69;4936896;29;20040;-65
2021/12/05 03:48:27;;;;;;;10.55;2.85;;;;;;;2.35;98.56;99697.13;4937124;29;20023;-65
2021/12/05 03:50:54;;;;;;;9.73;2.97;;;;;;;2.36;98.78;99704.88;4937175;29;20545;-66
2021/12/05 03:53:20;;;;;;;15.20;3.75;;;;;;;2.36;98.48;99709.31;4937002;29;20042;-66
2021/12/05 03:55:48;;;;;;;15.32;4.82;;;;;;;2.36;98.65;99704.88;4937103;29;20027;-66
2021/12/05 03:58:16;;;;;;;12.65;3.67;;;;;;;2.35;98.70;99700.56;4919982;29;20032;-66
2021/12/05 04:00:46;;;;;;;10.65;4.15;;;;;;;2.37;98.58;99703.03;4936775;29;20035;-66
2021/12/05 04:03:16;;;;;;;10.07;2.90;;;;;;;2.40;98.73;99707.97;4920029;29;20059;-66
2021/12/05 04:05:41;;;;;;;7.10;3.33;;;;;;;2.43;98.79;99702.34;4936955;29;20031;-66
2021/12/05 04:08:11;;;;;;;13.40;3.55;;;;;;;2.44;98.33;99700.53;4936926;29;20027;-66
2021/12/05 04:10:41;;;;;;;7.68;3.30;;;;;;;2.49;98.77;99699.03;4936903;29;20023;-66
2021/12/05 04:13:07;;;;;;;10.52;3.42;;;;;;;2.51;98.74;99702.31;4936709;29;20039;-66
2021/12/05 04:15:33;;;;;;;5.95;3.78;;;;;;;2.55;98.27;99703.63;4936577;29;20490;-66
2021/12/05 04:17:59;;;;;;;10.77;3.42;;;;;;;2.57;98.42;99711.34;4936464;29;20095;-66
2021/12/05 04:20:25;;;;;;;11.32;3.08;;;;;;;2.60;98.14;99708.38;4936562;29;20030;-66
2021/12/05 04:22:51;;;;;;;13.07;5.10;;;;;;;2.64;98.38;99709.63;4936583;29;20506;-67
2021/12/05 04:25:17;;;;;;;11.80;4.40;;;;;;;2.67;98.47;99701.38;4936532;29;20083;-66
2021/12/05 04:27:45;;;;;;;13.30;4.30;;;;;;;2.71;98.30;99702.69;4936487;29;20035;-66
2021/12/05 04:30:13;;;;;;;8.27;4.25;;;;;;;2.72;98.14;99699.06;4936112;29;20102;-66
2021/12/05 04:32:38;;;;;;;11.50;4.20;;;;;;;2.78;98.11;99708.09;4936511;29;20452;-66
2021/12/05 04:35:04;;;;;;;8.77;4.00;;;;;;;2.82;97.98;99704.91;4936305;29;20063;-66
2021/12/05 04:37:30;;;;;;;6.38;3.08;;;;;;;2.84;97.58;99702.94;4936277;29;20054;-66
2021/12/05 04:39:55;;;;;;;7.93;3.60;;;;;;;2.87;97.79;99706.22;4936318;29;20475;-66
2021/12/05 04:42:21;;;;;;;5.60;2.90;;;;;;;2.90;97.69;99700.59;4936144;29;20103;-66
2021/12/05 04:44:46;;;;;;;8.15;3.33;;;;;;;2.91;97.65;99696.97;4936320;29;20028;-66
2021/12/05 04:47:12;;;;;;;15.20;4.78;;;;;;;2.94;97.41;99691.38;4936183;29;20468;-66
2021/12/05 04:49:41;;;;;;;11.50;4.07;;;;;;;2.85;97.58;99694.03;4936219;29;20035;-66
2021/12/05 04:52:09;;;;;;;16.58;4.43;;;;;;;2.90;97.31;99706.69;4936177;29;20096;-66
2021/12/05 04:54:35;;;;;;;7.50;3.33;;;;;;;2.85;97.66;99711.66;4936112;29;20027;-66
2021/12/05 04:57:00;;;;;;;6.35;3.38;;;;;;;2.81;97.54;99705.09;4936068;29;20034;-66
2021/12/05 04:59:28;;;;;;;9.50;3.72;;;;;;;2.79;97.33;99699.19;4936044;29;20055;-66
2021/12/05 05:01:58;;;;;;;7.75;2.70;;;;;;;2.73;97.45;99686.75;4936112;29;20020;-66
2021/12/05 05:04:27;;;;;;;7.88;3.70;;;;;;;2.79;97.68;99689.47;4936043;29;20115;-66
2021/12/05 05:07:00;;;;;;;8.40;3.90;;;;;;;2.85;97.70;99699.28;4936041;29;20386;-66
2021/12/05 05:09:26;;;;;;;8.30;3.30;;;;;;;2.90;97.71;99693.50;4935671;29;20051;-66
2021/12/05 05:11:52;;;;;;;8.10;4.68;;;;;;;2.91;97.54;99695.16;4935918;29;20068;-66
2021/12/05 05:14:17;;;;;;;13.90;4.80;;;;;;;2.96;97.58;99694.63;4918917;29;20053;-66
2021/12/05 05:16:44;;;;;;;5.85;2.58;;;;;;;2.98;97.32;99703.16;4935505;29;20060;-66
2021/12/05 05:19:11;;;;;;;7.55;3.22;;;;;;;3.00;97.50;99704.63;4935824;29;20040;-66
2021/12/05 05:21:51;;;;;;;7.50;3.38;;;;;;;3.03;97.34;99703.47;4935760;29;20044;-66
2021/12/05 05:50:53;;;;;;;7.15;2.97;;;;;;;2.99;97.95;99736.44;4939414;29;20427;-66
2021/12/05 05:53:19;;;;;;;8.00;3.97;;;;;;;2.96;98.14;99734.13;4939336;29;20107;-66
2021/12/05 05:55:44;;;;;;;7.25;2.88;;;;;;;2.98;97.84;99740.84;4939346;29;20031;-66
2021/12/05 05:58:15;;;;;;;6.25;3.28;;;;;;;2.99;97.95;99737.25;4939380;29;20503;-66
2021/12/05 06:03:23;;;;;;;;;;;;;;;3.01;98.21;99747.59;4939469;29;20067;-66
2021/12/05 06:05:58;;;;;;;5.70;3.35;;;;;;;3.00;97.71;99748.59;4938637;29;19953;-66
2021/12/05 06:08:27;;;;;;;4.30;2.40;;;;;;;2.98;97.74;99743.50;4938978;29;20027;-66
2021/12/05 06:10:57;;;;;;;5.30;3.13;;;;;;;2.99;98.09;99757.50;4938868;29;20024;-67
2021/12/05 06:13:22;;;;;;;6.00;3.30;;;;;;;2.97;97.70;99746.31;4938925;29;20371;-67
2021/12/05 06:15:49;;;;;;;7.53;3.92;;;;;;;2.96;98.10;99753.41;4938959;29;20038;-66
2021/12/05 06:18:14;;;;;;;6.80;2.72;;;;;;;2.88;97.73;99750.78;4938640;29;20159;-67
2021/12/05 06:20:41;;;;;;;3.70;2.28;;;;;;;2.91;97.77;99763.63;4938748;29;20479;-66
2021/12/05 06:23:07;;;;;;;3.83;2.33;;;;;;;2.88;97.43;99763.97;4938777;29;20035;-66
2021/12/05 06:25:35;;;;;;;2.92;1.95;;;;;;;2.86;97.80;99763.34;4938504;29;20035;-66
2021/12/05 06:28:05;;;;;;;4.82;2.45;;;;;;;2.80;97.39;99769.28;4938596;29;20099;-66
2021/12/05 06:30:47;;;;;;;4.15;2.55;;;;;;;2.73;97.31;99763.09;4938641;29;20090;-66
2021/12/05 06:46:26;;;;;;;3.70;2.60;;;;;;;2.69;98.57;99788.91;4938339;29;20126;-66
2021/12/05 06:48:52;;;;;;;4.45;2.67;;;;;;;2.70;98.73;99798.47;4938351;29;20479;-66
2021/12/05 06:51:23;;;;;;;5.28;3.33;;;;;;;2.69;98.01;99794.19;4937866;29;20024;-66
2021/12/05 06:53:49;;;;;;;3.77;2.93;;;;;;;2.72;98.33;99803.53;4938296;29;20034;-66
2021/12/05 06:56:14;;;;;;;4.40;2.83;;;;;;;2.72;98.63;99800.91;4938119;29;20024;-66
2021/12/05 06:58:40;;;;;;;3.88;2.55;;;;;;;2.70;98.40;99803.72;4937981;29;20114;-66
2021/12/05 07:01:08;;;;;;;3.92;2.53;;;;;;;2.67;98.48;99800.59;4938057;29;20032;-66
2021/12/05 07:03:36;;;;;;;4.03;2.70;;;;;;;2.67;98.24;99808.50;4920925;29;20435;-66
2021/12/05 07:06:06;;;;;;;3.92;2.60;;;;;;;2.68;98.29;99813.59;4938077;29;20047;-67
2021/12/05 07:08:35;;;;;;;3.95;2.40;;;;;;;2.70;98.38;99822.16;4938101;29;20020;-66
2021/12/05 07:11:12;;;;;;;4.90;3.58;;;;;;;2.71;98.58;99822.97;4938047;29;20356;-66
2021/12/05 07:21:31;;;;;;;6.25;2.70;;;;;;;2.72;98.66;99841.22;4937740;29;20032;-66
2021/12/05 07:26:50;;;;;;;4.03;2.92;;;;;;;2.78;98.76;99851.09;4937755;29;20126;-66
2021/12/05 07:40:29;;;;;;;6.20;2.63;;;;;;;2.79;98.63;99846.63;4934504;29;20156;-66
2021/12/05 07:42:57;;;;;;;3.88;2.80;;;;;;;2.85;98.68;99859.91;4934043;29;20047;-67
2021/12/05 07:45:32;;;;;;;4.18;3.10;;;;;;;2.85;98.61;99859.09;4933600;29;20031;-66
2021/12/05 07:48:02;;;;;;;4.43;2.30;;;;;;;2.75;98.65;99854.06;4933863;29;20032;-67
2021/12/05 07:50:44;;;;;;;4.15;2.53;;;;;;;2.87;98.63;99875.56;4933756;29;20032;-66
2021/12/05 07:53:17;;;;;;;7.00;3.13;;;;;;;2.88;98.89;99877.19;4918810;29;20039;-66
2021/12/05 07:55:45;;;;;;;6.72;2.67;;;;;;;2.87;98.44;99870.28;4933640;29;20032;-66
2021/12/05 08:01:04;;;;;;;6.95;2.95;;;;;;;2.90;99.01;99875.22;4933572;29;20067;-66
2021/12/05 08:14:27;;;;;;;7.53;3.00;;;;;;;2.97;98.81;99891.97;4933411;29;20501;-66
2021/12/05 08:16:53;;;;;;;7.47;3.20;;;;;;;2.99;99.02;99886.56;4932844;29;20526;-66
2021/12/05 08:19:19;;;;;;;5.68;3.08;;;;;;;3.01;99.11;99885.41;4933131;29;20035;-66
2021/12/05 08:21:46;;;;;;;5.72;2.58;;;;;;;3.01;98.89;99893.31;4932979;29;20041;-66
2021/12/05 08:24:12;;;;;;;5.38;2.90;;;;;;;3.02;99.11;99896.75;4933037;29;20035;-66
2021/12/05 08:26:38;;;;;;;5.45;2.88;;;;;;;3.03;98.83;99883.38;4933000;29;20051;-67
2021/12/05 08:29:10;;;;;;;6.78;3.30;;;;;;;3.04;98.86;99887.69;4932983;29;20035;-67
2021/12/05 09:39:47;;;;;;;6.85;3.47;;;;;;;3.42;98.25;99997.69;4935519;29;20411;-65
2021/12/05 10:14:44;;;;;;;11.65;5.78;;;;;;;4.08;96.83;100043.00;4934777;29;20038;-67
2021/12/05 10:38:47;;;;;;;5.78;3.10;;;;;;;4.35;96.08;100055.69;4938575;29;20028;-66
2021/12/05 10:41:33;;;;;;;7.05;3.83;;;;;;;4.33;96.43;100051.59;4938313;29;20070;-66
2021/12/05 10:44:07;;;;;;;6.20;3.25;;;;;;;4.39;96.38;100066.72;4938436;29;20091;-66
2021/12/05 10:46:33;;;;;;;7.28;3.65;;;;;;;4.43;96.29;100068.03;4938128;29;20125;-67
2021/12/05 10:49:03;;;;;;;7.93;3.88;;;;;;;4.48;96.56;100065.69;4938380;29;20517;-67
2021/12/05 10:51:33;;;;;;;8.57;4.32;;;;;;;4.48;95.89;100067.47;4938332;29;20027;-67
2021/12/05 10:54:00;;;;;;;5.85;3.28;;;;;;;4.42;95.67;100068.19;4938314;29;20435;-66
2021/12/05 10:56:38;;;;;;;5.35;3.50;;;;;;;4.38;95.53;100065.91;4935328;29;20110;-67
2021/12/05 10:59:10;;;;;;;8.05;4.15;;;;;;;4.36;95.91;100067.88;4933304;29;20381;-67
2021/12/05 11:01:37;;;;;;;6.40;3.45;;;;;;;4.33;95.01;100070.88;4934184;29;20059;-67
2021/12/05 11:04:05;;;;;;;13.02;4.32;;;;;;;4.30;95.04;100073.06;4916636;29;20027;-67
2021/12/05 11:06:34;;;;;;;5.80;3.42;;;;;;;4.29;95.24;100072.22;4934301;29;20386;-67
2021/12/05 11:09:26;;;;;;;6.60;3.42;;;;;;;4.24;95.23;100069.28;4933912;29;20023;-66
2021/12/05 11:11:54;;;;;;;5.47;3.10;;;;;;;4.27;95.26;100078.66;4925240;29;20039;-66
2021/12/05 11:14:25;;;;;;;8.65;4.85;;;;;;;4.27;95.50;100073.38;4934256;29;20438;-67
2021/12/05 11:17:15;;;;;;;6.72;3.22;;;;;;;4.27;95.13;100074.25;4933580;29;20052;-66
2021/12/05 11:19:49;;;;;;;6.55;3.20;;;;;;;4.24;94.86;100084.31;4934169;29;20079;-67
2021/12/05 11:22:20;;;;;;;6.80;3.30;;;;;;;4.22;94.91;100083.66;4933738;29;20067;-67
2021/12/05 11:24:52;;;;;;;;;;;;;;;4.22;95.52;100088.94;4934436;29;20069;-66
2021/12/05 11:27:22;;;;;;;11.18;5.60;;;;;;;4.14;94.82;100088.00;4932567;29;21392;-67
2021/12/05 11:30:03;;;;;;;8.40;3.58;;;;;;;4.18;95.01;100101.66;4933896;29;20034;-66
2021/12/05 11:32:40;;;;;;;5.95;3.50;;;;;;;4.18;95.04;100099.03;4933403;29;20008;-66
2021/12/05 11:35:33;;;;;;;4.28;2.70;;;;;;;4.16;94.38;100098.38;4933483;29;20023;-67
2021/12/05 11:38:22;;;;;;;4.97;2.50;;;;;;;4.17;94.66;100100.03;4924813;29;20039;-67
2021/12/05 11:41:12;;;;;;;5.03;2.80;;;;;;;4.18;94.86;100109.56;4933738;29;20028;-67
2021/12/05 11:43:51;;;;;;;4.30;2.65;;;;;;;4.20;95.12;100112.88;4933326;29;20032;-67
2021/12/05 11:46:35;;;;;;;5.57;2.33;;;;;;;4.22;95.31;100118.81;4933492;29;20040;-67
2021/12/05 11:49:06;;;;;;;3.38;2.72;;;;;;;4.23;94.68;100120.44;4932209;29;20095;-66
2021/12/05 11:51:38;;;;;;;4.07;2.75;;;;;;;4.27;94.87;100118.25;4933402;29;20028;-67
2021/12/05 11:54:09;;;;;;;4.22;2.53;;;;;;;4.28;94.85;100126.03;4933010;29;20024;-66
2021/12/05 11:56:34;;;;;;;6.18;3.75;;;;;;;4.28;94.95;100117.28;4933343;29;20412;-67
2021/12/05 11:59:33;;;;;;;5.22;3.47;;;;;;;4.29;95.17;100122.38;4932855;29;20096;-67
2021/12/05 12:02:17;;;;;;;5.80;2.92;;;;;;;4.29;94.84;100122.38;4918535;29;20039;-67
2021/12/05 12:04:53;;;;;;;5.43;3.30;;;;;;;4.26;94.56;100125.38;4932593;29;20028;-67
2021/12/05 12:07:30;;;;;;;5.75;3.13;;;;;;;4.22;94.74;100132.00;4932983;29;20036;-67
2021/12/05 12:10:08;;;;;;;5.85;3.22;;;;;;;4.21;94.34;100130.34;4932885;29;20111;-66
2021/12/05 12:12:34;;;;;;;6.18;3.55;;;;;;;4.22;94.10;100132.00;4932912;29;20019;-67
2021/12/05 12:15:01;;;;;;;4.68;3.03;;;;;;;4.22;94.31;100136.44;4932251;29;20023;-66
2021/12/05 12:17:27;;;;;;;4.28;3.00;;;;;;;4.21;94.06;100134.78;4930868;29;20066;-67
2021/12/05 12:19:54;;;;;;;4.82;2.88;;;;;;;4.19;94.21;100137.59;4931776;29;20118;-67
2021/12/05 12:22:22;;;;;;;3.95;2.83;;;;;;;4.16;93.87;100136.13;4931614;29;20027;-67
2021/12/05 12:24:53;;;;;;;4.32;2.83;;;;;;;4.16;94.24;100136.13;4931845;29;20387;-67
2021/12/05 12:27:19;;;;;;;3.92;2.63;;;;;;;4.13;93.89;100131.19;4931711;29;20030;-67
2021/12/05 12:29:46;;;;;;;4.25;2.78;;;;;;;4.12;94.20;100136.66;4931963;29;20027;-69
2021/12/05 12:32:15;;;;;;;4.80;2.80;;;;;;;4.09;93.76;100134.38;4932180;29;20078;-67
2021/12/05 12:34:42;;;;;;;6.20;3.30;;;;;;;4.08;93.46;100138.00;4922434;29;20032;-67
2021/12/05 12:37:08;;;;;;;2.92;2.25;;;;;;;4.07;93.31;100139.00;4924987;29;20032;-67
2021/12/05 12:39:41;;;;;;;3.05;2.35;;;;;;;4.09;94.04;100144.94;4932514;29;20143;-67
2021/12/05 12:42:12;;;;;;;7.53;3.05;;;;;;;4.09;93.85;100148.38;4931596;29;20020;-67
2021/12/05 12:44:55;;;;;;;5.97;3.33;;;;;;;4.11;94.14;100154.31;4932364;29;20501;-67
2021/12/05 12:47:35;;;;;;;6.70;3.70;;;;;;;4.11;94.03;100148.19;4931061;29;20090;-67
2021/12/05 12:50:36;;;;;;;4.22;3.03;;;;;;;4.21;93.52;100156.72;4931709;29;20023;-66
2021/12/05 12:53:17;;;;;;;5.15;3.00;;;;;;;4.23;93.77;100161.84;4932294;29;20027;-67
2021/12/05 12:56:09;;;;;;;3.78;2.90;;;;;;;4.27;93.65;100163.13;4931873;29;20091;-67
2021/12/05 12:58:36;;;;;;;3.67;2.80;;;;;;;4.29;93.48;100166.44;4932220;29;20024;-67
2021/12/05 13:02:26;;;;;;;3.58;2.72;;;;;;;4.33;93.51;100167.75;4931641;29;20053;-66
2021/12/05 13:12:33;;;;;;;3.92;2.63;;;;;;;4.57;92.23;100175.50;4932047;29;20031;-67
2021/12/05 13:15:19;;;;;;;2.70;2.00;;;;;;;4.58;92.12;100174.53;4932135;29;20470;-67
2021/12/05 13:17:51;;;;;;;4.43;2.25;;;;;;;4.63;92.38;100186.38;4931587;29;20059;-67
2021/12/05 13:20:25;;;;;;;3.90;2.35;;;;;;;4.66;92.15;100178.09;4931624;29;20087;-67
2021/12/05 13:23:07;;;;;;;5.78;2.25;;;;;;;4.71;92.46;100176.56;4932031;29;20118;-68
2021/12/05 13:25:58;;;;;;;4.18;2.42;;;;;;;4.76;92.04;100182.16;4922970;29;20135;-67
2021/12/05 13:28:30;;;;;;;4.78;2.55;;;;;;;4.76;91.72;100187.44;4931613;29;20020;-68
2021/12/05 13:30:56;;;;;;;4.38;2.60;;;;;;;4.78;91.24;100193.38;4931780;29;20064;-68
2021/12/05 13:33:28;;;;;;;4.20;2.60;;;;;;;4.77;90.77;100197.03;4931852;29;20032;-67
2021/12/05 13:35:58;;;;;;;4.22;2.55;;;;;;;4.77;91.09;100202.31;4930909;29;20039;-68
2021/12/05 13:38:38;;;;;;;4.15;2.47;;;;;;;4.75;91.04;100198.19;4930468;29;20054;-68
2021/12/05 13:41:19;;;;;;;3.60;2.15;;;;;;;4.79;90.72;100208.25;4930642;29;20019;-68
2021/12/05 13:44:03;;;;;;;3.53;2.80;;;;;;;4.80;90.85;100215.16;4932021;29;20046;-68
2021/12/05 13:46:35;;;;;;;3.38;2.53;;;;;;;4.80;91.03;100214.34;4931520;29;20032;-68
2021/12/05 13:49:22;;;;;;;3.67;2.70;;;;;;;4.80;91.55;100220.44;4931298;29;20027;-68
2021/12/05 13:51:48;;;;;;;2.33;1.80;;;;;;;4.77;90.75;100220.81;4931171;29;20024;-67
2021/12/05 13:54:24;;;;;;;3.05;2.15;;;;;;;4.71;90.39;100223.31;4931544;29;20027;-67
2021/12/05 13:57:05;;;;;;;4.82;2.17;;;;;;;4.67;90.93;100222.03;4930504;29;20035;-68
2021/12/05 13:59:30;;;;;;;2.77;1.97;;;;;;;4.67;90.59;100230.75;4931699;29;20685;-67
2021/12/05 14:01:56;;;;;;;3.78;2.15;;;;;;;4.59;90.17;100222.88;4932233;29;20291;-67
2021/12/05 14:04:27;;;;;;;3.67;2.35;;;;;;;4.59;89.82;100238.72;4934441;29;20054;-67
2021/12/05 14:07:06;;;;;;;2.50;2.00;;;;;;;4.54;89.99;100244.53;4935156;29;20024;-67
2021/12/05 14:09:39;;;;;;;3.85;2.40;;;;;;;4.51;90.51;100247.50;4935124;29;20044;-67
2021/12/05 14:12:31;;;;;;;5.40;2.30;;;;;;;4.47;90.09;100243.56;4935260;29;20020;-67
2021/12/05 14:15:00;;;;;;;3.70;2.33;;;;;;;4.42;89.88;100245.06;4934940;29;20030;-67
2021/12/05 14:17:29;;;;;;;3.63;2.00;;;;;;;4.45;89.75;100255.28;4934729;29;20047;-67
2021/12/05 14:20:07;;;;;;;3.58;2.10;;;;;;;4.43;89.43;100254.63;4935003;29;20035;-67
2021/12/05 14:22:35;;;;;;;5.38;2.50;;;;;;;4.42;90.24;100253.81;4934897;29;20387;-67
2021/12/05 14:25:07;;;;;;;3.85;3.03;;;;;;;4.41;89.61;100270.66;4934977;29;20082;-67
2021/12/05 14:27:37;;;;;;;1.73;1.60;;;;;;;4.41;89.73;100264.56;4934428;29;20043;-67
2021/12/05 14:30:10;;;;;;;4.35;2.50;;;;;;;4.39;89.83;100278.75;4934879;29;20020;-67
2021/12/05 14:32:38;;;;;;;3.80;2.10;;;;;;;4.40;89.47;100282.19;4934769;29;20034;-69
2021/12/05 14:35:05;;;;;;;5.03;2.60;;;;;;;4.37;89.67;100285.19;4934805;29;20023;-67
2021/12/05 14:37:33;;;;;;;5.55;2.17;;;;;;;4.36;90.01;100288.81;4934328;29;20038;-67
2021/12/05 14:40:13;;;;;;;5.90;2.88;;;;;;;4.35;90.73;100297.75;4934601;29;20032;-67
2021/12/05 14:42:43;;;;;;;3.42;2.40;;;;;;;4.36;90.46;100313.41;4934139;29;20047;-67
2021/12/05 14:45:21;;;;;;;8.05;3.88;;;;;;;4.30;89.90;100305.34;4934583;29;20482;-67
2021/12/05 14:47:49;;;;;;;5.80;3.35;;;;;;;4.31;90.98;100312.25;4934171;29;20036;-67
2021/12/05 14:50:21;;;;;;;3.85;2.58;;;;;;;4.28;89.73;100318.72;4934285;29;20036;-66
2021/12/05 14:52:52;;;;;;;7.93;3.40;;;;;;;4.26;89.75;100325.16;4934178;29;20024;-67
2021/12/05 14:55:20;;;;;;;6.38;2.80;;;;;;;4.24;90.06;100333.22;4934044;29;20027;-67
2021/12/05 14:57:51;;;;;;;5.18;3.15;;;;;;;4.24;89.34;100342.97;4933865;29;20040;-67
2021/12/05 15:00:25;;;;;;;7.80;3.05;;;;;;;4.23;90.00;100347.41;4934515;29;20034;-66
2021/12/05 15:03:06;;;;;;;5.80;3.15;;;;;;;4.20;90.24;100350.41;4933852;29;20028;-67
2021/12/05 15:05:34;;;;;;;4.10;2.40;;;;;;;4.16;90.97;100357.81;4934340;29;20028;-67
2021/12/05 15:08:16;;;;;;;3.70;2.47;;;;;;;4.15;90.96;100358.00;4933922;29;20118;-67
2021/12/05 15:10:44;;;;;;;6.85;3.65;;;;;;;4.12;91.04;100360.97;4934318;29;20031;-67
2021/12/05 15:13:11;;;;;;;8.05;3.83;;;;;;;4.11;91.28;100369.88;4933621;29;20031;-66
2021/12/05 15:15:37;;;;;;;6.95;4.05;;;;;;;4.07;91.19;100371.19;4933820;29;20059;-66
2021/12/05 15:18:05;;;;;;;5.05;2.78;;;;;;;4.08;91.35;100381.56;4933473;29;20047;-66
2021/12/05 15:20:35;;;;;;;6.35;3.08;;;;;;;4.06;90.72;100388.84;4933933;29;20023;-66
2021/12/05 15:23:07;;;;;;;5.15;3.17;;;;;;;4.06;91.46;100385.38;4933633;29;20041;-66
2021/12/05 15:25:36;;;;;;;7.72;3.42;;;;;;;4.03;90.98;100388.34;4933687;29;20486;-66
2021/12/05 15:28:03;;;;;;;7.50;3.72;;;;;;;4.04;91.33;100401.38;4933282;29;20482;-67
2021/12/05 15:30:32;;;;;;;5.82;3.28;;;;;;;3.96;91.01;100390.84;4933618;29;20106;-67
2021/12/05 15:33:03;;;;;;;6.82;3.53;;;;;;;4.03;90.99;100409.44;4933709;29;20486;-67
2021/12/05 15:35:30;;;;;;;7.20;3.77;;;;;;;4.02;91.56;100418.38;4933614;29;20398;-67
2021/12/05 15:38:04;;;;;;;7.18;4.18;;;;;;;4.01;91.53;100421.97;4933073;29;20027;-66
2021/12/05 15:40:32;;;;;;;8.90;3.92;;;;;;;4.00;91.71;100425.63;4933463;29;20031;-66
2021/12/05 15:43:04;;;;;;;7.63;3.40;;;;;;;3.97;92.15;100418.84;4932972;29;20100;-66
2021/12/05 15:45:31;;;;;;;8.35;3.88;;;;;;;3.97;92.50;100429.41;4932784;29;20055;-67
2021/12/05 15:47:56;;;;;;;7.28;3.38;;;;;;;3.99;91.97;100435.34;4933010;29;20031;-66
2021/12/05 15:50:28;;;;;;;6.95;3.60;;;;;;;3.94;91.30;100432.38;4933444;29;20036;-66
2021/12/05 15:52:57;;;;;;;6.05;3.45;;;;;;;3.92;91.59;100443.06;4933170;29;20019;-66
2021/12/05 15:55:31;;;;;;;7.78;3.08;;;;;;;3.90;92.17;100441.59;4933214;29;20114;-67
2021/12/05 15:58:02;;;;;;;7.95;3.53;;;;;;;3.86;91.43;100443.75;4932887;29;20146;-66
2021/12/05 16:00:32;;;;;;;5.95;3.20;;;;;;;3.85;91.18;100457.09;4933088;29;20023;-67
2021/12/05 16:03:02;;;;;;;7.50;3.20;;;;;;;3.83;91.90;100453.81;4932256;29;20046;-67
2021/12/05 16:05:28;;;;;;;6.07;3.00;;;;;;;3.87;92.31;100458.56;4933110;29;20027;-68
2021/12/05 16:08:01;;;;;;;10.23;4.47;;;;;;;3.88;91.83;100464.69;4932870;29;20039;-67
2021/12/05 16:10:26;;;;;;;5.55;3.33;;;;;;;3.87;92.53;100468.31;4933072;29;20103;-67
2021/12/05 16:12:53;;;;;;;10.02;5.30;;;;;;;3.86;91.59;100466.66;4932766;29;20155;-67
2021/12/05 16:15:25;;;;;;;12.77;4.63;;;;;;;3.85;91.87;100470.28;4932050;29;20043;-66
2021/12/05 16:17:52;;;;;;;;;;;;;;;3.88;92.21;100480.53;4932680;29;20503;-67
2021/12/05 16:20:21;;;;;;;6.80;3.47;;;;;;;3.85;92.03;100481.66;4932455;29;20317;-67
2021/12/05 16:22:57;;;;;;;7.15;3.40;;;;;;;3.85;92.41;100492.22;4932868;29;20031;-67
2021/12/05 16:25:24;;;;;;;7.80;3.75;;;;;;;3.86;92.00;100501.78;4931917;29;20039;-67
2021/12/05 16:27:51;;;;;;;8.68;4.15;;;;;;;3.86;92.56;100500.97;4932086;29;20020;-66
2021/12/05 16:30:26;;;;;;;9.73;4.75;;;;;;;3.87;92.09;100510.50;4932697;29;20039;-67
2021/12/05 16:32:52;;;;;;;5.88;3.30;;;;;;;3.86;92.39;100509.69;4932496;29;20047;-67
2021/12/05 16:35:28;;;;;;;7.72;3.88;;;;;;;3.88;92.86;100514.81;4932446;29;20031;-66
2021/12/05 16:37:53;;;;;;;8.63;4.25;;;;;;;3.87;93.06;100523.69;4931865;29;20023;-67
2021/12/05 16:40:20;;;;;;;7.00;3.20;;;;;;;3.83;93.43;100509.19;4932361;29;20149;-66
2021/12/05 16:42:46;;;;;;;8.57;4.72;;;;;;;3.85;93.05;100520.38;4932335;29;20042;-67
2021/12/05 16:45:12;;;;;;;8.13;3.78;;;;;;;3.86;93.04;100522.06;4932048;29;20036;-66
2021/12/05 16:47:37;;;;;;;12.18;5.97;;;;;;;3.84;93.21;100516.13;4931828;29;20098;-66
2021/12/05 16:50:07;;;;;;;15.95;6.53;;;;;;;3.82;93.33;100516.25;4932409;29;20034;-66
2021/12/05 16:52:42;;;;;;;8.85;3.53;;;;;;;3.82;93.82;100526.00;4932061;29;20039;-67
2021/12/05 16:55:25;;;;;;;20.30;8.27;;;;;;;3.74;93.88;100530.25;4932339;29;20435;-66
2021/12/05 16:57:58;;;;;;;14.80;6.10;;;;;;;3.70;93.36;100533.38;4932000;29;21270;-66
2021/12/05 17:00:27;;;;;;;16.58;8.63;;;;;;;3.65;92.90;100535.69;4932138;29;20028;-67
2021/12/05 17:02:56;;;;;;;19.13;8.95;;;;;;;3.62;93.26;100534.19;4932119;29;20023;-66
2021/12/05 17:05:28;;;;;;;17.45;8.55;;;;;;;3.62;93.17;100543.91;4932030;29;20471;-68
2021/12/05 17:08:00;;;;;;;11.85;5.55;;;;;;;3.61;93.18;100544.88;4931834;29;20020;-69
2021/12/05 17:10:25;;;;;;;12.30;4.90;;;;;;;3.59;93.18;100554.75;4932048;29;20075;-67
2021/12/05 17:13:08;;;;;;;10.17;4.87;;;;;;;3.53;93.22;100544.84;4932045;29;20058;-68
2021/12/05 17:15:42;;;;;;;8.50;4.30;;;;;;;3.57;93.20;100557.56;4932008;29;20349;-67
2021/12/05 17:18:18;;;;;;;11.23;4.07;;;;;;;3.57;92.92;100562.84;4930862;29;20046;-68
2021/12/05 17:20:47;;;;;;;10.32;4.60;;;;;;;3.59;92.72;100566.16;4918665;29;20036;-67
2021/12/05 17:23:20;;;;;;;9.25;4.40;;;;;;;3.59;92.66;100574.06;4916800;29;20090;-67
2021/12/05 17:25:49;;;;;;;9.18;4.60;;;;;;;3.60;92.89;100577.53;4916791;29;20032;-67
2021/12/05 17:28:28;;;;;;;7.85;4.70;;;;;;;3.58;92.79;100582.94;4916547;29;20484;-67
2021/12/05 17:30:58;;;;;;;12.75;5.05;;;;;;;3.58;93.08;100585.56;4899492;29;20355;-67